Time;durP1;ratioP1;P1;durP2;ratioP2;P2;SDS_P1;SDS_P2;PMS_P1;PMS_P2;Temp;Humidity;BMP_temperature;BMP_pressure;BME280_temperature;BME280_humidity;BME280_pressure;Samples;Min_cycle;Max_cycle;Signal;HPM_P1;HPM_P2
2021/04/01 00:00:29;;;;;;;7.68;5.03;;;;;;;;;;5132760;27;20063;-49
2021/04/01 00:02:55;;;;;;;10.75;6.10;;;;;;;;;;5136615;27;20034;-52
2021/04/01 00:05:24;;;;;;;8.82;5.47;;;;;;;;;;5133842;27;20376;-51
2021/04/01 00:07:49;;;;;;;9.77;5.05;;;;;;;;;;5132695;27;20095;-53
2021/04/01 00:10:19;;;;;;;9.93;5.60;;;;;;;;;;5132255;27;20125;-52
2021/04/01 00:12:44;;;;;;;8.65;5.00;;;;;;;;;;5132468;27;20118;-54
2021/04/01 00:15:12;;;;;;;9.23;5.18;;;;;;;;;;5133830;27;20491;-52
2021/04/01 00:17:39;;;;;;;19.88;5.22;;;;;;;;;;5132694;27;20110;-52
2021/04/01 00:20:08;;;;;;;10.00;5.60;;;;;;;;;;5132656;27;20027;-50
2021/04/01 00:22:34;;;;;;;16.15;6.68;;;;;;;;;;5133304;27;20019;-52
2021/04/01 00:24:59;;;;;;;14.80;6.93;;;;;;;;;;5131903;27;20023;-51
2021/04/01 00:27:25;;;;;;;10.85;6.38;;;;;;;;;;5132740;27;20038;-51
2021/04/01 00:29:50;;;;;;;7.55;5.72;;;;;;;;;;5132368;27;20464;-51
2021/04/01 00:32:16;;;;;;;15.43;5.15;;;;;;;;;;5135315;27;20042;-54
2021/04/01 00:34:42;;;;;;;13.05;6.63;;;;;;;;;;5114197;27;20051;-52
2021/04/01 00:37:07;;;;;;;12.10;5.63;;;;;;;;;;5132448;27;20049;-51
2021/04/01 00:39:32;;;;;;;10.85;5.22;;;;;;;;;;5132702;27;20381;-53
2021/04/01 00:41:58;;;;;;;15.60;6.30;;;;;;;;;;5132523;27;20119;-51
2021/04/01 00:44:23;;;;;;;17.50;6.10;;;;;;;;;;5132677;27;20031;-50
2021/04/01 00:46:49;;;;;;;9.18;5.97;;;;;;;;;;5111770;27;20084;-51
2021/04/01 00:49:16;;;;;;;11.35;6.13;;;;;;;;;;5132230;27;20096;-50
2021/04/01 00:51:42;;;;;;;12.82;5.95;;;;;;;;;;5132371;27;20028;-52
2021/04/01 00:54:07;;;;;;;17.10;6.03;;;;;;;;;;5132980;27;20369;-51
2021/04/01 00:56:33;;;;;;;8.40;6.00;;;;;;;;;;5132745;27;20027;-52
2021/04/01 00:58:59;;;;;;;12.52;6.20;;;;;;;;;;5130911;27;20043;-52
2021/04/01 01:03:54;;;;;;;9.68;5.72;;;;;;;;;;5135233;27;20019;-50
2021/04/01 01:06:20;;;;;;;8.32;5.68;;;;;;;;;;5132522;27;20042;-48
2021/04/01 01:08:45;;;;;;;28.85;6.13;;;;;;;;;;5132079;27;20027;-51
2021/04/01 01:11:11;;;;;;;13.75;6.07;;;;;;;;;;5133409;27;20352;-51
2021/04/01 01:13:37;;;;;;;9.63;6.00;;;;;;;;;;5132132;27;20356;-52
2021/04/01 01:16:02;;;;;;;9.82;5.97;;;;;;;;;;5131963;27;20039;-50
2021/04/01 01:18:28;;;;;;;12.45;5.90;;;;;;;;;;5124005;27;20179;-52
2021/04/01 01:20:57;;;;;;;14.85;5.55;;;;;;;;;;5133351;27;20046;-52
2021/04/01 01:23:25;;;;;;;7.28;5.30;;;;;;;;;;5134218;27;20610;-54
2021/04/01 01:25:50;;;;;;;9.30;4.97;;;;;;;;;;5135788;27;20050;-50
2021/04/01 01:28:16;;;;;;;13.98;5.72;;;;;;;;;;5135516;27;20039;-54
2021/04/01 01:30:41;;;;;;;11.40;5.88;;;;;;;;;;5135595;27;20099;-49
2021/04/01 01:33:08;;;;;;;11.57;5.13;;;;;;;;;;5137820;27;20027;-50
2021/04/01 01:35:36;;;;;;;8.13;5.22;;;;;;;;;;5137399;27;20400;-50
2021/04/01 01:38:07;;;;;;;12.02;5.32;;;;;;;;;;5136104;27;20437;-51
2021/04/01 01:40:33;;;;;;;11.95;5.32;;;;;;;;;;5136027;27;20569;-51
2021/04/01 01:43:00;;;;;;;10.95;4.95;;;;;;;;;;5135677;27;20046;-52
2021/04/01 01:45:27;;;;;;;15.23;5.30;;;;;;;;;;5136493;27;20058;-51
2021/04/01 01:47:54;;;;;;;14.18;4.95;;;;;;;;;;5135079;27;20117;-51
2021/04/01 01:50:21;;;;;;;10.70;5.13;;;;;;;;;;5136250;27;20031;-47
2021/04/01 01:52:47;;;;;;;14.40;6.43;;;;;;;;;;5135990;27;20027;-52
2021/04/01 01:55:13;;;;;;;12.55;6.53;;;;;;;;;;5135027;27;20042;-53
2021/04/01 01:57:39;;;;;;;17.02;7.07;;;;;;;;;;5136104;27;20039;-51
2021/04/01 02:00:07;;;;;;;9.90;5.45;;;;;;;;;;5134727;27;20080;-51
2021/04/01 02:02:32;;;;;;;10.52;5.90;;;;;;;;;;5137839;27;20031;-51
2021/04/01 02:04:58;;;;;;;15.20;6.32;;;;;;;;;;5136281;27;20868;-51
2021/04/01 02:07:23;;;;;;;8.90;5.45;;;;;;;;;;5135396;27;20045;-49
2021/04/01 02:09:49;;;;;;;14.45;6.78;;;;;;;;;;5135181;27;20115;-53
2021/04/01 02:12:15;;;;;;;10.23;6.13;;;;;;;;;;5134850;27;20098;-54
2021/04/01 02:14:44;;;;;;;9.82;6.57;;;;;;;;;;5135202;27;20454;-49
2021/04/01 02:17:11;;;;;;;10.32;5.38;;;;;;;;;;5134888;27;20107;-49
2021/04/01 02:19:36;;;;;;;11.40;6.32;;;;;;;;;;5134973;27;20026;-51
2021/04/01 02:22:02;;;;;;;14.75;5.75;;;;;;;;;;5134742;27;20039;-51
2021/04/01 02:24:27;;;;;;;13.57;5.85;;;;;;;;;;5134757;27;20025;-52
2021/04/01 02:26:56;;;;;;;13.43;6.00;;;;;;;;;;5134781;27;20513;-52
2021/04/01 02:29:22;;;;;;;8.48;5.63;;;;;;;;;;5134933;27;20456;-52
2021/04/01 02:31:48;;;;;;;17.58;6.05;;;;;;;;;;5134811;27;20112;-49
2021/04/01 02:34:14;;;;;;;11.88;6.38;;;;;;;;;;5136027;27;20056;-51
2021/04/01 02:36:39;;;;;;;13.52;6.15;;;;;;;;;;5114620;27;20119;-52
2021/04/01 02:39:05;;;;;;;8.75;5.68;;;;;;;;;;5135949;27;20027;-50
2021/04/01 02:41:30;;;;;;;22.73;5.95;;;;;;;;;;5134603;27;20046;-50
2021/04/01 02:43:56;;;;;;;10.35;5.65;;;;;;;;;;5135532;27;20020;-49
2021/04/01 02:46:21;;;;;;;12.10;6.57;;;;;;;;;;5134517;27;20048;-53
2021/04/01 02:48:46;;;;;;;9.43;5.55;;;;;;;;;;5134392;27;20035;-54
2021/04/01 02:51:12;;;;;;;11.73;6.88;;;;;;;;;;5137719;27;20027;-51
2021/04/01 02:53:37;;;;;;;15.00;7.90;;;;;;;;;;5133872;27;20038;-51
2021/04/01 02:56:03;;;;;;;9.57;6.40;;;;;;;;;;5113872;27;20023;-52
2021/04/01 02:58:28;;;;;;;10.82;6.25;;;;;;;;;;5135220;27;20057;-49
2021/04/01 03:00:54;;;;;;;11.35;6.22;;;;;;;;;;5134892;27;20349;-49
2021/04/01 03:03:29;;;;;;;16.70;6.18;;;;;;;;;;5136971;27;20448;-53
2021/04/01 03:05:59;;;;;;;13.13;6.25;;;;;;;;;;5136361;27;20130;-53
2021/04/01 03:08:24;;;;;;;12.48;5.72;;;;;;;;;;5135194;27;20102;-50
2021/04/01 03:10:50;;;;;;;15.18;5.72;;;;;;;;;;5134613;27;20114;-52
2021/04/01 03:13:15;;;;;;;13.23;5.85;;;;;;;;;;5133678;27;20456;-52
2021/04/01 03:15:41;;;;;;;10.68;6.63;;;;;;;;;;5134699;27;20054;-52
2021/04/01 03:18:06;;;;;;;16.77;6.40;;;;;;;;;;5133318;27;20032;-53
2021/04/01 03:20:32;;;;;;;14.98;6.80;;;;;;;;;;5133925;27;20027;-51
2021/04/01 03:22:58;;;;;;;22.40;8.63;;;;;;;;;;5134503;27;20372;-51
2021/04/01 03:25:23;;;;;;;15.10;7.95;;;;;;;;;;5134909;27;20027;-48
2021/04/01 03:27:48;;;;;;;10.18;6.15;;;;;;;;;;5133162;27;20034;-53
2021/04/01 03:30:15;;;;;;;11.85;7.03;;;;;;;;;;5134465;27;20472;-49
2021/04/01 03:32:41;;;;;;;10.77;6.38;;;;;;;;;;5137189;27;20113;-49
2021/04/01 03:35:09;;;;;;;14.27;7.13;;;;;;;;;;5134696;27;20663;-51
2021/04/01 03:37:35;;;;;;;17.73;7.00;;;;;;;;;;5134086;27;20018;-51
2021/04/01 03:40:01;;;;;;;12.20;6.07;;;;;;;;;;5133333;27;20046;-50
2021/04/01 03:42:27;;;;;;;9.50;6.90;;;;;;;;;;5133841;27;20368;-52
2021/04/01 03:44:53;;;;;;;11.48;6.70;;;;;;;;;;5133668;27;20023;-53
2021/04/01 03:47:19;;;;;;;11.52;7.78;;;;;;;;;;5133563;27;20390;-52
2021/04/01 03:49:45;;;;;;;12.32;6.90;;;;;;;;;;5133287;27;20055;-48
2021/04/01 03:52:10;;;;;;;10.38;7.28;;;;;;;;;;5132852;27;20031;-51
2021/04/01 03:54:36;;;;;;;11.35;6.40;;;;;;;;;;5133302;27;20037;-52
2021/04/01 03:57:02;;;;;;;12.68;6.70;;;;;;;;;;5133000;27;20055;-55
2021/04/01 03:59:43;;;;;;;11.15;7.28;;;;;;;;;;5133747;27;20037;-49
2021/04/01 04:02:31;;;;;;;13.63;6.72;;;;;;;;;;5135419;27;20023;-50
2021/04/01 04:05:04;;;;;;;14.50;6.85;;;;;;;;;;5132771;27;20028;-49
2021/04/01 04:15:59;;;;;;;20.50;7.20;;;;;;;;;;5088429;28;20820;-49
2021/04/01 04:18:24;;;;;;;12.55;7.82;;;;;;;;;;5114647;27;20399;-48
2021/04/01 04:20:50;;;;;;;11.07;8.23;;;;;;;;;;5132260;27;20030;-49
2021/04/01 04:23:16;;;;;;;15.25;7.88;;;;;;;;;;5132920;27;20054;-51
2021/04/01 04:25:42;;;;;;;13.35;7.93;;;;;;;;;;5132616;27;20027;-51
2021/04/01 04:30:36;;;;;;;15.15;8.02;;;;;;;;;;5133004;27;20018;-54
2021/04/01 04:33:01;;;;;;;14.70;7.03;;;;;;;;;;5113506;27;20038;-50
2021/04/01 04:35:27;;;;;;;13.88;7.55;;;;;;;;;;5134221;27;20102;-52
2021/04/01 04:37:53;;;;;;;13.15;7.50;;;;;;;;;;5132691;27;20142;-55
2021/04/01 04:40:18;;;;;;;13.75;7.38;;;;;;;;;;5132951;27;20122;-52
2021/04/01 04:42:44;;;;;;;11.50;7.43;;;;;;;;;;5131856;27;20038;-50
2021/04/01 04:45:10;;;;;;;17.33;7.75;;;;;;;;;;5132672;27;20099;-51
2021/04/01 04:47:36;;;;;;;12.02;7.43;;;;;;;;;;5133048;27;20027;-53
2021/04/01 04:50:03;;;;;;;10.48;6.80;;;;;;;;;;5131329;27;20034;-52
2021/04/01 04:52:29;;;;;;;17.95;7.45;;;;;;;;;;5132676;27;20023;-53
2021/04/01 04:54:54;;;;;;;10.60;7.75;;;;;;;;;;5131942;27;20027;-52
2021/04/01 05:00:06;;;;;;;16.67;8.40;;;;;;;;;;5136137;27;20034;-53
2021/04/01 05:05:15;;;;;;;11.18;7.88;;;;;;;;;;5136772;27;20038;-51
2021/04/01 05:07:40;;;;;;;12.45;7.63;;;;;;;;;;5136475;27;20039;-53
2021/04/01 05:10:06;;;;;;;21.00;8.95;;;;;;;;;;5127765;27;20465;-50
2021/04/01 05:12:32;;;;;;;21.17;8.52;;;;;;;;;;5137977;27;20450;-53
2021/04/01 05:14:57;;;;;;;19.92;8.35;;;;;;;;;;5135460;27;20015;-53
2021/04/01 05:17:23;;;;;;;15.32;6.90;;;;;;;;;;5136300;27;20112;-51
2021/04/01 05:19:52;;;;;;;15.98;8.70;;;;;;;;;;5136077;27;20315;-53
2021/04/01 05:25:12;;;;;;;17.80;8.68;;;;;;;;;;5113232;27;20071;-53
2021/04/01 05:27:43;;;;;;;15.73;8.88;;;;;;;;;;5136920;27;20062;-52
2021/04/01 05:30:09;;;;;;;16.33;7.57;;;;;;;;;;5137406;27;20038;-53
2021/04/01 05:32:38;;;;;;;18.73;7.72;;;;;;;;;;5139163;27;20092;-51
2021/04/01 05:35:09;;;;;;;22.75;8.35;;;;;;;;;;5134321;27;20666;-53
2021/04/01 05:37:35;;;;;;;19.40;8.57;;;;;;;;;;5135465;27;20073;-54
2021/04/01 05:40:01;;;;;;;17.00;9.07;;;;;;;;;;5134314;27;20055;-54
2021/04/01 05:42:32;;;;;;;19.52;8.15;;;;;;;;;;5136236;27;20094;-52
2021/04/01 05:45:09;;;;;;;;;;;;;;;;;;5138564;27;20027;-55
2021/04/01 05:47:56;;;;;;;15.10;8.20;;;;;;;;;;5136145;27;20010;-53
2021/04/01 06:04:20;;;;;;;17.48;9.27;;;;;;;;;;5137452;27;20447;-53
2021/04/01 06:07:00;;;;;;;15.88;8.43;;;;;;;;;;5135448;27;20059;-49
2021/04/01 06:09:45;;;;;;;21.65;8.60;;;;;;;;;;5135637;27;20096;-51
2021/04/01 06:12:11;;;;;;;13.27;8.32;;;;;;;;;;5136244;27;20033;-53
2021/04/01 06:14:36;;;;;;;12.10;8.60;;;;;;;;;;5135176;27;20077;-49
2021/04/01 06:17:05;;;;;;;25.50;8.57;;;;;;;;;;5136294;27;20437;-53
2021/04/01 06:19:35;;;;;;;16.27;9.05;;;;;;;;;;5134386;27;20100;-52
2021/04/01 06:22:06;;;;;;;16.40;9.00;;;;;;;;;;5137582;27;20026;-50
2021/04/01 06:24:33;;;;;;;14.63;8.20;;;;;;;;;;5135281;27;20019;-52
2021/04/01 06:27:06;;;;;;;16.20;8.80;;;;;;;;;;5116526;27;20042;-50
2021/04/01 06:29:32;;;;;;;17.50;8.80;;;;;;;;;;5135824;27;20472;-51
2021/04/01 06:32:01;;;;;;;13.88;8.00;;;;;;;;;;5136929;27;20027;-51
2021/04/01 06:34:36;;;;;;;17.27;9.07;;;;;;;;;;5135363;27;20604;-50
2021/04/01 06:37:03;;;;;;;14.70;8.63;;;;;;;;;;5134570;27;20100;-52
2021/04/01 06:39:29;;;;;;;16.70;9.55;;;;;;;;;;5133953;27;20038;-49
2021/04/01 06:42:07;;;;;;;14.25;10.10;;;;;;;;;;5136604;27;20050;-54
2021/04/01 06:44:50;;;;;;;25.08;9.13;;;;;;;;;;5134903;27;20464;-49
2021/04/01 06:47:21;;;;;;;21.45;9.27;;;;;;;;;;5134193;27;20472;-51
2021/04/01 06:49:59;;;;;;;11.32;8.10;;;;;;;;;;5132237;27;20038;-51
2021/04/01 06:52:33;;;;;;;15.98;9.50;;;;;;;;;;5134708;27;20104;-54
2021/04/01 06:55:14;;;;;;;20.05;9.00;;;;;;;;;;5133706;27;20055;-54
2021/04/01 07:02:41;;;;;;;17.92;10.18;;;;;;;;;;5136770;27;20621;-52
2021/04/01 07:05:36;;;;;;;24.48;10.90;;;;;;;;;;5135258;27;20164;-51
2021/04/01 07:08:07;;;;;;;18.58;9.50;;;;;;;;;;5134539;27;20062;-52
2021/04/01 07:10:51;;;;;;;15.43;9.63;;;;;;;;;;5135760;27;20064;-49
2021/04/01 07:13:22;;;;;;;15.93;10.25;;;;;;;;;;5136325;27;20449;-48
2021/04/01 07:15:52;;;;;;;22.25;10.75;;;;;;;;;;5134372;27;20066;-50
2021/04/01 07:48:05;;;;;;;13.02;9.25;;;;;;;;;;5132814;27;20430;-50
2021/04/01 07:50:38;;;;;;;13.00;9.52;;;;;;;;;;5133628;27;20118;-50
2021/04/01 07:53:04;;;;;;;13.95;9.55;;;;;;;;;;5134624;27;20126;-55
2021/04/01 07:55:36;;;;;;;19.02;9.73;;;;;;;;;;5134639;27;20360;-53
2021/04/01 08:00:47;;;;;;;20.42;8.98;;;;;;;;;;5134150;27;20450;-53
2021/04/01 08:04:07;;;;;;;12.98;9.32;;;;;;;;;;5115893;27;20095;-53
2021/04/01 08:06:09;;;;;;;18.10;9.40;;;;;;;;;;5123989;27;20062;-50
2021/04/01 08:08:44;;;;;;;31.42;10.50;;;;;;;;;;5133822;27;20031;-51
2021/04/01 08:11:11;;;;;;;15.25;9.35;;;;;;;;;;5112671;27;20110;-52
2021/04/01 08:13:42;;;;;;;15.00;9.40;;;;;;;;;;5113650;27;20386;-55
2021/04/01 08:16:10;;;;;;;10.82;8.52;;;;;;;;;;5131128;27;20633;-50
2021/04/01 08:18:38;;;;;;;15.65;8.68;;;;;;;;;;5132741;27;20041;-55
2021/04/01 08:21:07;;;;;;;12.70;8.88;;;;;;;;;;5133428;27;20039;-53
2021/04/01 08:23:36;;;;;;;11.40;8.63;;;;;;;;;;5133230;27;20646;-53
2021/04/01 08:37:08;;;;;;;15.73;10.05;;;;;;;;;;5118173;27;20047;-53
2021/04/01 08:39:36;;;;;;;17.80;11.00;;;;;;;;;;5132785;27;20341;-54
2021/04/01 08:42:07;;;;;;;15.25;10.15;;;;;;;;;;5132381;27;20041;-50
2021/04/01 08:44:51;;;;;;;54.72;14.45;;;;;;;;;;5134017;27;20050;-52
2021/04/01 08:47:30;;;;;;;27.23;10.20;;;;;;;;;;5116731;27;20049;-55
2021/04/01 08:50:26;;;;;;;11.77;9.65;;;;;;;;;;5133276;27;20125;-51
2021/04/01 08:53:08;;;;;;;20.95;9.82;;;;;;;;;;5131867;27;20035;-53
2021/04/01 08:55:40;;;;;;;14.32;10.88;;;;;;;;;;5132823;27;20027;-53
2021/04/01 08:58:16;;;;;;;77.88;18.17;;;;;;;;;;5131519;27;20110;-53
2021/04/01 09:00:42;;;;;;;43.65;13.00;;;;;;;;;;5113947;27;20035;-53
2021/04/01 09:03:10;;;;;;;21.98;9.45;;;;;;;;;;5133927;27;20039;-53
2021/04/01 09:05:37;;;;;;;18.33;9.38;;;;;;;;;;5133684;27;20021;-53
2021/04/01 09:08:05;;;;;;;52.50;12.55;;;;;;;;;;5133138;27;20042;-51
2021/04/01 09:10:39;;;;;;;30.27;11.25;;;;;;;;;;5133453;27;20035;-51
2021/04/01 09:13:16;;;;;;;16.20;9.35;;;;;;;;;;5131847;27;20051;-52
2021/04/01 09:15:53;;;;;;;24.20;9.05;;;;;;;;;;5131374;27;20197;-54
2021/04/01 09:18:29;;;;;;;13.63;8.65;;;;;;;;;;5129860;27;20070;-55
2021/04/01 09:21:01;;;;;;;14.35;9.55;;;;;;;;;;5134280;27;20034;-51
2021/04/01 09:23:32;;;;;;;11.40;8.98;;;;;;;;;;5137617;27;20026;-54
2021/04/01 09:25:59;;;;;;;14.48;9.40;;;;;;;;;;5132615;27;20035;-53
2021/04/01 09:28:30;;;;;;;14.80;9.07;;;;;;;;;;5129649;27;20619;-54
2021/04/01 09:30:57;;;;;;;19.27;9.70;;;;;;;;;;5115156;27;20039;-54
2021/04/01 09:33:27;;;;;;;15.10;9.82;;;;;;;;;;5116071;27;20031;-52
2021/04/01 09:35:53;;;;;;;15.90;11.02;;;;;;;;;;5133791;27;20030;-51
2021/04/01 09:38:19;;;;;;;15.10;9.85;;;;;;;;;;5132621;27;20111;-54
2021/04/01 09:40:48;;;;;;;19.70;11.25;;;;;;;;;;5132118;27;20124;-53
2021/04/01 09:43:19;;;;;;;17.25;9.60;;;;;;;;;;5131861;27;20034;-52
2021/04/01 09:45:47;;;;;;;14.52;10.63;;;;;;;;;;5115794;27;20050;-54
2021/04/01 09:48:14;;;;;;;16.00;10.65;;;;;;;;;;5137109;27;20114;-54
2021/04/01 09:50:42;;;;;;;17.48;10.68;;;;;;;;;;5134015;27;20550;-53
2021/04/01 09:53:15;;;;;;;15.45;10.40;;;;;;;;;;5136525;27;20035;-52
2021/04/01 09:55:50;;;;;;;14.05;10.75;;;;;;;;;;5135979;27;20520;-53
2021/04/01 09:58:30;;;;;;;16.95;11.30;;;;;;;;;;5139225;27;20042;-54
2021/04/01 10:04:06;;;;;;;16.50;10.52;;;;;;;;;;5134323;27;20027;-55
2021/04/01 10:06:44;;;;;;;16.13;9.95;;;;;;;;;;5138430;27;20031;-53
2021/04/01 10:09:15;;;;;;;17.52;11.35;;;;;;;;;;5118576;27;20085;-54
2021/04/01 10:11:56;;;;;;;18.30;11.40;;;;;;;;;;5135596;27;20031;-53
2021/04/01 10:14:22;;;;;;;23.40;12.10;;;;;;;;;;5138227;27;20035;-52
2021/04/01 10:16:59;;;;;;;18.90;11.40;;;;;;;;;;5137106;27;20484;-52
2021/04/01 10:19:33;;;;;;;22.08;11.55;;;;;;;;;;5136127;27;20095;-54
2021/04/01 10:21:59;;;;;;;18.42;11.25;;;;;;;;;;5134727;27;20423;-55
2021/04/01 10:24:36;;;;;;;17.20;10.93;;;;;;;;;;5137164;27;20046;-52
2021/04/01 10:27:16;;;;;;;25.10;11.35;;;;;;;;;;5135200;27;20135;-53
2021/04/01 10:32:10;;;;;;;15.85;10.98;;;;;;;;;;5134816;27;20035;-53
2021/04/01 10:34:36;;;;;;;20.23;11.70;;;;;;;;;;5135731;27;20499;-53
2021/04/01 10:37:10;;;;;;;19.50;11.88;;;;;;;;;;5135526;27;20118;-54
2021/04/01 10:39:38;;;;;;;23.38;12.95;;;;;;;;;;5135815;27;20498;-53
2021/04/01 10:42:06;;;;;;;34.10;13.63;;;;;;;;;;5135257;27;20035;-51
2021/04/01 10:44:32;;;;;;;19.20;13.63;;;;;;;;;;5136630;27;20053;-52
2021/04/01 10:47:00;;;;;;;26.25;13.13;;;;;;;;;;5134464;27;20027;-53
2021/04/01 10:49:29;;;;;;;18.80;13.80;;;;;;;;;;5114315;27;20457;-53
2021/04/01 10:51:58;;;;;;;19.67;14.07;;;;;;;;;;5134280;27;20114;-54
2021/04/01 10:54:33;;;;;;;19.05;13.27;;;;;;;;;;5137313;27;20079;-53
2021/04/01 10:56:59;;;;;;;21.52;14.60;;;;;;;;;;5142516;27;20061;-56
2021/04/01 10:59:51;;;;;;;22.38;18.23;;;;;;;;;;5137951;27;20121;-55
2021/04/01 11:02:18;;;;;;;33.08;21.27;;;;;;;;;;5131157;27;20453;-52
2021/04/01 11:04:54;;;;;;;35.72;23.27;;;;;;;;;;5133031;27;20031;-52
2021/04/01 11:07:20;;;;;;;30.98;22.58;;;;;;;;;;5135446;27;20369;-55
2021/04/01 11:09:50;;;;;;;31.75;21.30;;;;;;;;;;5133406;27;20123;-54
2021/04/01 11:12:20;;;;;;;;;;;;;;;;;;5113697;27;20042;-54
2021/04/01 11:14:53;;;;;;;104.70;32.95;;;;;;;;;;5132932;27;19926;-56
2021/04/01 11:17:23;;;;;;;41.72;24.90;;;;;;;;;;5132356;27;20451;-52
2021/04/01 11:19:53;;;;;;;46.03;25.02;;;;;;;;;;5131317;27;20046;-51
2021/04/01 11:22:19;;;;;;;28.65;22.65;;;;;;;;;;5135315;27;20048;-55
2021/04/01 11:24:45;;;;;;;34.35;21.52;;;;;;;;;;5125824;27;20027;-56
2021/04/01 11:27:19;;;;;;;49.63;23.40;;;;;;;;;;5114099;27;20046;-58
2021/04/01 11:29:58;;;;;;;34.63;21.40;;;;;;;;;;5131530;27;20065;-56
2021/04/01 11:32:29;;;;;;;27.63;20.67;;;;;;;;;;5133230;27;20342;-57
2021/04/01 11:34:59;;;;;;;31.00;20.10;;;;;;;;;;5135369;27;20058;-55
2021/04/01 11:37:28;;;;;;;33.75;21.10;;;;;;;;;;5131301;27;20031;-54
2021/04/01 11:40:08;;;;;;;36.92;21.73;;;;;;;;;;5130960;27;20372;-52
2021/04/01 11:42:34;;;;;;;29.20;20.08;;;;;;;;;;5132441;27;20067;-53
2021/04/01 11:45:04;;;;;;;37.45;20.00;;;;;;;;;;5131410;27;20050;-52
2021/04/01 11:47:31;;;;;;;47.97;23.38;;;;;;;;;;5133361;27;20027;-55
2021/04/01 11:49:57;;;;;;;36.13;20.70;;;;;;;;;;5131712;27;20042;-56
2021/04/01 11:52:24;;;;;;;36.65;19.88;;;;;;;;;;5133031;27;20027;-53
2021/04/01 11:54:52;;;;;;;36.92;19.65;;;;;;;;;;5132711;27;20356;-54
2021/04/01 11:57:29;;;;;;;32.55;19.05;;;;;;;;;;5123401;27;20630;-58
2021/04/01 12:00:08;;;;;;;28.70;17.90;;;;;;;;;;5115210;27;20047;-55
2021/04/01 12:05:44;;;;;;;55.85;18.63;;;;;;;;;;5134676;27;20360;-52
2021/04/01 12:08:10;;;;;;;24.10;14.95;;;;;;;;;;5112776;27;20046;-56
2021/04/01 12:10:36;;;;;;;48.72;16.55;;;;;;;;;;5133234;27;20026;-57
2021/04/01 12:13:01;;;;;;;27.35;16.98;;;;;;;;;;5135465;27;20363;-53
2021/04/01 12:15:35;;;;;;;21.95;14.23;;;;;;;;;;5134211;27;20046;-53
2021/04/01 12:18:03;;;;;;;21.83;14.98;;;;;;;;;;5132986;27;20031;-56
2021/04/01 12:20:29;;;;;;;23.83;13.60;;;;;;;;;;5133855;27;20042;-54
2021/04/01 12:22:55;;;;;;;23.67;12.80;;;;;;;;;;5135239;27;20484;-54
2021/04/01 12:25:22;;;;;;;21.58;11.68;;;;;;;;;;5134431;27;20023;-54
2021/04/01 12:27:55;;;;;;;16.75;10.68;;;;;;;;;;5132493;27;20039;-54
2021/04/01 12:30:33;;;;;;;24.30;15.38;;;;;;;;;;5133763;27;20077;-55
2021/04/01 12:33:19;;;;;;;18.85;9.77;;;;;;;;;;5134540;27;20113;-55
2021/04/01 12:35:54;;;;;;;82.07;18.60;;;;;;;;;;5132094;27;20035;-53
2021/04/01 12:38:33;;;;;;;19.60;10.80;;;;;;;;;;5132079;27;20369;-55
2021/04/01 12:41:04;;;;;;;15.95;9.45;;;;;;;;;;5134819;27;20037;-55
2021/04/01 12:43:44;;;;;;;15.05;9.60;;;;;;;;;;5139366;27;20333;-54
2021/04/01 12:46:09;;;;;;;17.00;10.00;;;;;;;;;;5134993;27;20041;-52
2021/04/01 12:48:50;;;;;;;22.05;10.45;;;;;;;;;;5138230;27;20274;-52
2021/04/01 12:51:20;;;;;;;22.52;9.23;;;;;;;;;;5140592;27;20409;-54
2021/04/01 12:54:06;;;;;;;19.00;10.57;;;;;;;;;;5140571;27;20027;-54
2021/04/01 12:56:42;;;;;;;14.82;9.68;;;;;;;;;;5135816;27;20065;-55
2021/04/01 12:59:22;;;;;;;18.55;9.95;;;;;;;;;;5143243;27;20456;-53
2021/04/01 13:04:15;;;;;;;19.58;11.63;;;;;;;;;;5130444;27;20126;-54
2021/04/01 13:11:41;;;;;;;20.02;12.60;;;;;;;;;;5132026;27;20069;-54
2021/04/01 13:14:06;;;;;;;20.70;11.48;;;;;;;;;;5132159;27;20063;-54
2021/04/01 13:16:32;;;;;;;44.70;15.60;;;;;;;;;;5133698;27;20049;-54
2021/04/01 13:18:57;;;;;;;16.13;10.43;;;;;;;;;;5135614;27;20378;-51
2021/04/01 13:21:33;;;;;;;19.20;11.15;;;;;;;;;;5137663;27;20039;-51
2021/04/01 13:24:06;;;;;;;21.38;11.77;;;;;;;;;;5136430;27;20042;-54
2021/04/01 13:26:33;;;;;;;20.15;12.00;;;;;;;;;;5136616;27;20124;-52
2021/04/01 13:29:01;;;;;;;16.92;10.88;;;;;;;;;;5135445;27;20045;-54
2021/04/01 13:31:41;;;;;;;32.08;13.55;;;;;;;;;;5136844;27;20023;-53
2021/04/01 13:37:25;;;;;;;21.95;12.10;;;;;;;;;;5136650;27;20045;-54
2021/04/01 13:39:33;;;;;;;36.75;15.52;;;;;;;;;;5114578;27;20035;-54
2021/04/01 13:47:10;;;;;;;32.40;13.52;;;;;;;;;;5137233;27;20921;-52
2021/04/01 13:49:37;;;;;;;20.27;12.93;;;;;;;;;;5135596;27;20023;-58
2021/04/01 13:52:12;;;;;;;31.55;14.73;;;;;;;;;;5137237;27;20027;-52
2021/04/01 13:57:31;;;;;;;52.88;17.75;;;;;;;;;;5136398;27;20034;-50
2021/04/01 14:00:20;;;;;;;32.03;13.30;;;;;;;;;;5120814;27;20133;-54
2021/04/01 14:11:16;;;;;;;32.50;11.73;;;;;;;;;;5136545;27;20414;-52
2021/04/01 14:13:43;;;;;;;129.77;25.10;;;;;;;;;;5134652;27;20034;-55
2021/04/01 14:16:08;;;;;;;18.77;11.75;;;;;;;;;;5135135;27;20504;-48
2021/04/01 14:18:35;;;;;;;30.42;13.80;;;;;;;;;;5141961;27;20104;-53
2021/04/01 14:21:02;;;;;;;16.40;8.65;;;;;;;;;;5143451;27;20467;-54
2021/04/01 14:23:30;;;;;;;21.60;9.20;;;;;;;;;;5133424;27;20050;-52
2021/04/01 14:25:59;;;;;;;41.40;7.90;;;;;;;;;;5135112;27;20043;-51
2021/04/01 14:28:25;;;;;;;15.40;5.65;;;;;;;;;;5135238;27;20049;-52
2021/04/01 14:30:51;;;;;;;27.77;8.13;;;;;;;;;;5134412;27;20122;-48
2021/04/01 14:33:17;;;;;;;18.60;6.80;;;;;;;;;;5135228;27;20498;-54
2021/04/01 14:35:44;;;;;;;53.65;11.98;;;;;;;;;;5135572;27;20529;-52
2021/04/01 14:38:11;;;;;;;9.25;5.40;;;;;;;;;;5123169;27;20047;-52
2021/04/01 14:40:49;;;;;;;30.90;8.82;;;;;;;;;;5132840;27;20027;-54
2021/04/01 14:43:24;;;;;;;16.33;6.97;;;;;;;;;;5137799;27;20019;-55
2021/04/01 14:45:50;;;;;;;43.90;9.65;;;;;;;;;;5134391;27;20027;-49
2021/04/01 14:48:16;;;;;;;25.88;7.22;;;;;;;;;;5137349;27;20065;-51
2021/04/01 14:50:42;;;;;;;58.85;11.00;;;;;;;;;;5132564;27;20452;-52
2021/04/01 14:53:15;;;;;;;18.90;6.93;;;;;;;;;;5132788;27;20031;-51
2021/04/01 14:55:40;;;;;;;31.75;8.90;;;;;;;;;;5131761;27;20031;-55
2021/04/01 14:58:09;;;;;;;74.72;15.18;;;;;;;;;;5132751;27;20617;-52
2021/04/01 15:00:34;;;;;;;44.90;10.30;;;;;;;;;;5132984;27;20022;-54
2021/04/01 15:03:00;;;;;;;16.83;6.47;;;;;;;;;;5125656;27;20460;-54
2021/04/01 15:05:26;;;;;;;19.35;5.07;;;;;;;;;;5136531;27;20070;-52
2021/04/01 15:07:53;;;;;;;9.40;4.50;;;;;;;;;;5133765;27;20065;-53
2021/04/01 15:10:19;;;;;;;10.43;5.05;;;;;;;;;;5136013;27;20111;-53
2021/04/01 15:12:45;;;;;;;15.02;4.78;;;;;;;;;;5135462;27;20122;-54
2021/04/01 15:15:12;;;;;;;26.40;6.97;;;;;;;;;;5133928;27;20029;-54
2021/04/01 15:17:38;;;;;;;69.28;14.65;;;;;;;;;;5135319;27;20447;-55
2021/04/01 15:20:07;;;;;;;26.27;6.75;;;;;;;;;;5116553;27;20468;-55
2021/04/01 15:22:32;;;;;;;38.90;6.78;;;;;;;;;;5135646;27;20534;-54
2021/04/01 15:24:58;;;;;;;119.38;20.85;;;;;;;;;;5122927;27;20034;-52
2021/04/01 15:27:23;;;;;;;32.70;8.18;;;;;;;;;;5136971;27;20364;-54
2021/04/01 15:29:53;;;;;;;9.45;5.65;;;;;;;;;;5118590;27;20091;-50
2021/04/01 15:32:20;;;;;;;15.25;6.30;;;;;;;;;;5117809;27;20070;-55
2021/04/01 15:34:45;;;;;;;21.70;7.82;;;;;;;;;;5134719;27;20031;-50
2021/04/01 15:37:11;;;;;;;22.27;6.55;;;;;;;;;;5133161;27;20112;-53
2021/04/01 15:41:00;;;;;;;18.60;7.63;;;;;;;;;;3604170;39;20453;-52
2021/04/01 15:43:26;;;;;;;18.42;6.97;;;;;;;;;;3610865;39;20104;-52
2021/04/01 15:45:53;;;;;;;16.77;7.78;;;;;;;;;;3611194;39;20088;-53
2021/04/01 15:48:18;;;;;;;18.33;7.95;;;;;;;;;;3611020;39;20071;-54
2021/04/01 15:50:44;;;;;;;17.85;7.88;;;;;;;;;;3611101;39;20081;-55
2021/04/01 15:53:10;;;;;;;24.33;9.30;;;;;;;;;;3610626;39;20490;-51
2021/04/01 15:55:36;;;;;;;20.65;8.50;;;;;;;;;;3611024;39;20438;-51
2021/04/01 15:58:01;;;;;;;22.85;8.38;;;;;;;;;;3612595;39;20063;-53
2021/04/01 16:00:27;;;;;;;28.20;9.95;;;;;;;;;;3611224;39;20071;-51
2021/04/01 16:02:53;;;;;;;20.58;9.40;;;;;;;;;;3613180;39;20068;-50
2021/04/01 16:05:19;;;;;;;23.02;9.90;;;;;;;;;;3611464;39;20068;-51
2021/04/01 16:07:45;;;;;;;18.13;10.32;;;;;;;;;;3612556;39;20082;-50
2021/04/01 16:10:11;;;;;;;31.50;10.90;;;;;;;;;;3609351;39;20359;-49
2021/04/01 16:12:36;;;;;;;21.90;10.38;;;;;;;;;;3610329;39;20072;-51
2021/04/01 16:15:03;;;;;;;18.77;9.98;;;;;;;;;;3611865;39;20180;-54
2021/04/01 16:17:29;;;;;;;21.13;10.43;;;;;;;;;;3610971;39;20078;-52
2021/04/01 16:19:54;;;;;;;22.15;11.23;;;;;;;;;;3611162;39;20365;-56
2021/04/01 16:22:20;;;;;;;27.42;11.40;;;;;;;;;;3611060;39;20087;-53
2021/04/01 16:24:46;;;;;;;20.70;10.98;;;;;;;;;;3611788;39;20090;-51
2021/04/01 16:27:12;;;;;;;22.45;11.35;;;;;;;;;;3610824;39;20323;-54
2021/04/01 16:29:38;;;;;;;42.90;10.73;;;;;;;;;;3610741;39;20072;-53
2021/04/01 16:32:05;;;;;;;21.50;11.10;;;;;;;;;;3618873;39;20478;-50
2021/04/01 16:34:33;;;;;;;27.23;10.77;;;;;;;;;;3611634;39;20082;-50
2021/04/01 16:36:59;;;;;;;22.95;10.75;;;;;;;;;;3611877;39;20179;-54